createdAt,value
2022-11-30T00:01:25.624Z,33.45
2022-11-30T00:03:54.992Z,32.13
2022-11-30T00:06:23.943Z,31.67
2022-11-30T00:08:53.524Z,31.02
2022-11-30T00:11:22.625Z,31.35
2022-11-30T00:13:50.997Z,31.63
2022-11-30T00:16:18.792Z,30.65
2022-11-30T00:18:48.029Z,31.80
2022-11-30T00:21:16.246Z,31.67
2022-11-30T00:23:46.065Z,30.92
2022-11-30T00:26:15.884Z,32.72
2022-11-30T00:28:45.160Z,31.13
2022-11-30T00:31:14.918Z,32.20
2022-11-30T00:33:42.865Z,31.77
2022-11-30T00:36:14.654Z,31.33
2022-11-30T00:38:42.446Z,31.50
2022-11-30T00:41:10.859Z,30.20
2022-11-30T00:43:38.633Z,28.33
2022-11-30T00:46:08.982Z,30.65
2022-11-30T00:48:36.909Z,28.58
2022-11-30T00:51:05.021Z,28.83
2022-11-30T00:53:34.314Z,28.60
2022-11-30T00:56:02.393Z,28.20
2022-11-30T00:58:30.161Z,28.75
2022-11-30T01:00:57.975Z,29.33
2022-11-30T01:03:25.823Z,29.05
2022-11-30T01:05:53.659Z,29.63
2022-11-30T01:08:21.419Z,28.58
2022-11-30T01:10:53.712Z,28.15
2022-11-30T01:13:21.494Z,29.45
2022-11-30T01:15:49.308Z,29.42
2022-11-30T01:18:17.214Z,29.37
2022-11-30T01:20:45.047Z,29.48
2022-11-30T01:23:12.800Z,29.73
2022-11-30T01:25:40.637Z,29.02
2022-11-30T01:28:10.843Z,30.23
2022-11-30T01:30:38.689Z,29.98
2022-11-30T01:33:06.970Z,29.25
2022-11-30T01:35:34.705Z,30.77
2022-11-30T01:38:02.466Z,30.42
2022-11-30T01:40:30.252Z,30.10
2022-11-30T01:42:58.025Z,30.77
2022-11-30T01:45:27.522Z,31.75
2022-11-30T01:47:57.665Z,31.05
2022-11-30T01:50:29.374Z,30.98
2022-11-30T01:52:58.686Z,32.25
2022-11-30T01:55:30.513Z,32.30
2022-11-30T01:58:03.128Z,34.17
2022-11-30T02:00:32.531Z,31.60
2022-11-30T02:03:05.812Z,32.92
2022-11-30T02:05:35.488Z,33.42
2022-11-30T02:08:03.431Z,33.10
2022-11-30T02:10:33.503Z,32.92
2022-11-30T02:13:17.119Z,32.13
2022-11-30T02:15:55.928Z,33.42
2022-11-30T02:18:31.862Z,33.42
2022-11-30T02:21:07.723Z,34.45
2022-11-30T02:24:05.252Z,34.47
2022-11-30T02:27:09.486Z,35.05
2022-11-30T02:29:41.999Z,33.83
2022-11-30T02:32:15.169Z,33.08
2022-11-30T02:34:44.583Z,35.03
2022-11-30T02:37:14.603Z,34.08
2022-11-30T02:39:43.171Z,34.85
2022-11-30T02:42:13.504Z,34.97
2022-11-30T02:44:45.639Z,34.20
2022-11-30T02:47:23.305Z,34.38
2022-11-30T02:49:57.021Z,35.25
2022-11-30T02:52:27.313Z,34.30
2022-11-30T02:54:59.489Z,34.22
2022-11-30T02:57:27.314Z,35.28
2022-11-30T02:59:56.738Z,35.65
2022-11-30T03:02:24.793Z,33.70
2022-11-30T03:04:52.593Z,33.00
2022-11-30T03:07:20.396Z,32.60
2022-11-30T03:09:48.241Z,33.47
2022-11-30T03:12:16.012Z,32.25
2022-11-30T03:14:44.000Z,33.40
2022-11-30T03:17:13.421Z,32.20
2022-11-30T03:19:41.299Z,32.35
2022-11-30T03:22:09.170Z,31.38
2022-11-30T03:24:37.040Z,31.23
2022-11-30T03:27:04.924Z,31.20
2022-11-30T03:29:32.719Z,29.52
2022-11-30T03:32:00.545Z,30.58
2022-11-30T03:34:29.714Z,29.97
2022-11-30T03:36:57.468Z,29.42
2022-11-30T03:39:25.290Z,30.00
2022-11-30T03:41:53.065Z,30.20
2022-11-30T03:44:20.966Z,29.10
2022-11-30T03:46:48.831Z,29.50
2022-11-30T03:49:16.691Z,30.85
2022-11-30T03:51:45.817Z,30.42
2022-11-30T03:54:13.627Z,30.05
2022-11-30T03:56:41.449Z,31.50
2022-11-30T03:59:09.214Z,30.10
2022-11-30T04:01:37.135Z,31.98
2022-11-30T04:04:05.113Z,31.55
2022-11-30T04:06:32.893Z,32.73
2022-11-30T04:09:02.833Z,33.50
2022-11-30T04:11:30.945Z,33.80
2022-11-30T04:13:58.682Z,32.75
2022-11-30T04:16:26.486Z,34.30
2022-11-30T04:18:54.284Z,32.47
2022-11-30T04:21:22.052Z,30.90
2022-11-30T04:23:49.818Z,30.30
2022-11-30T04:26:19.321Z,30.38
2022-11-30T04:28:47.108Z,29.85
2022-11-30T04:31:15.082Z,29.60
2022-11-30T04:33:42.883Z,26.73
2022-11-30T04:36:18.527Z,27.00
2022-11-30T04:38:46.575Z,26.17
2022-11-30T04:41:14.885Z,25.27
2022-11-30T04:43:44.045Z,24.80
2022-11-30T04:46:11.967Z,23.83
2022-11-30T04:48:39.768Z,24.50
2022-11-30T04:51:09.496Z,25.70
2022-11-30T04:53:38.479Z,25.40
2022-11-30T04:56:07.784Z,25.05
2022-11-30T04:58:35.999Z,24.63
2022-11-30T05:01:05.412Z,25.58
2022-11-30T05:03:33.191Z,26.08
2022-11-30T05:06:00.988Z,27.58
2022-11-30T05:08:28.759Z,28.27
2022-11-30T05:10:56.792Z,26.40
2022-11-30T05:13:25.912Z,27.85
2022-11-30T05:15:54.508Z,28.30
2022-11-30T05:18:23.987Z,29.33
2022-11-30T05:20:53.218Z,28.63
2022-11-30T05:23:21.420Z,27.88
2022-11-30T05:25:49.782Z,26.77
2022-11-30T05:28:17.598Z,25.98
2022-11-30T05:30:46.089Z,27.17
2022-11-30T05:33:13.913Z,27.33
2022-11-30T05:35:43.966Z,27.58
2022-11-30T05:38:11.784Z,26.33
2022-11-30T05:40:39.631Z,26.20
2022-11-30T05:43:08.057Z,25.00
2022-11-30T05:45:35.845Z,24.33
2022-11-30T05:48:03.616Z,23.90
2022-11-30T05:50:31.427Z,23.40
2022-11-30T05:53:02.362Z,21.58
2022-11-30T05:55:32.334Z,21.98
2022-11-30T05:58:00.200Z,21.75
2022-11-30T06:00:28.170Z,20.73
2022-11-30T06:02:59.515Z,22.20
2022-11-30T06:05:27.633Z,21.90
2022-11-30T06:07:55.611Z,22.00
2022-11-30T06:10:27.203Z,21.95
2022-11-30T06:12:55.009Z,21.48
2022-11-30T06:15:22.882Z,21.58
2022-11-30T06:17:50.783Z,22.42
2022-11-30T06:20:18.782Z,23.20
2022-11-30T06:22:47.626Z,22.45
2022-11-30T06:25:15.910Z,21.40
2022-11-30T06:27:45.043Z,22.33
2022-11-30T06:30:14.065Z,22.90
2022-11-30T06:32:44.885Z,22.25
2022-11-30T06:35:12.666Z,22.52
2022-11-30T06:37:40.537Z,22.65
2022-11-30T06:40:10.259Z,22.50
2022-11-30T06:42:39.014Z,21.35
2022-11-30T06:45:10.330Z,21.10
2022-11-30T06:47:38.106Z,20.75
2022-11-30T06:50:08.130Z,21.95
2022-11-30T06:52:36.128Z,20.88
2022-11-30T06:55:04.061Z,22.02
2022-11-30T06:57:32.130Z,19.98
2022-11-30T06:59:59.925Z,23.85
2022-11-30T07:02:29.149Z,19.13
2022-11-30T07:04:56.990Z,20.30
2022-11-30T07:07:24.791Z,19.00
2022-11-30T07:09:53.046Z,19.10
2022-11-30T07:12:20.865Z,19.20
2022-11-30T07:14:52.293Z,19.95
2022-11-30T07:17:20.142Z,20.15
2022-11-30T07:19:49.588Z,19.35
2022-11-30T07:22:17.392Z,20.05
2022-11-30T07:25:02.844Z,19.40
2022-11-30T07:27:30.929Z,20.02
2022-11-30T07:29:58.694Z,19.98
2022-11-30T07:32:26.970Z,19.83
2022-11-30T07:34:56.285Z,19.13
2022-11-30T07:37:24.286Z,19.42
2022-11-30T07:39:52.065Z,21.38
2022-11-30T07:42:19.906Z,20.65
2022-11-30T07:44:51.494Z,19.70
2022-11-30T07:47:24.364Z,20.80
2022-11-30T07:49:52.166Z,21.35
2022-11-30T07:52:21.267Z,21.40
2022-11-30T07:54:49.277Z,22.35
2022-11-30T07:57:17.235Z,22.60
2022-11-30T07:59:45.225Z,23.25
2022-11-30T08:02:13.615Z,22.77
2022-11-30T08:04:41.598Z,22.80
2022-11-30T08:07:09.419Z,28.10
2022-11-30T08:09:38.547Z,25.83
2022-11-30T08:12:06.724Z,25.20
2022-11-30T08:14:50.445Z,24.77
2022-11-30T08:17:22.553Z,25.55
2022-11-30T08:19:50.334Z,26.43
2022-11-30T08:22:18.109Z,25.50
2022-11-30T08:24:50.067Z,26.00
2022-11-30T08:27:18.028Z,25.73
2022-11-30T08:29:45.794Z,25.25
2022-11-30T08:32:13.770Z,25.17
2022-11-30T08:34:41.612Z,25.88
2022-11-30T08:37:09.552Z,24.80
2022-11-30T08:39:37.363Z,26.27
2022-11-30T08:42:07.799Z,26.50
2022-11-30T08:44:35.574Z,26.85
2022-11-30T08:47:03.357Z,25.08
2022-11-30T08:49:31.596Z,24.90
2022-11-30T08:54:48.961Z,25.30
2022-11-30T08:57:19.638Z,24.88
2022-11-30T08:59:47.646Z,23.35
2022-11-30T09:02:18.106Z,25.50
2022-11-30T09:04:48.737Z,26.02
2022-11-30T09:07:16.669Z,25.02
2022-11-30T09:09:44.566Z,24.75
2022-11-30T09:12:12.430Z,25.38
2022-11-30T09:14:41.548Z,25.20
2022-11-30T09:17:09.393Z,23.67
2022-11-30T09:19:37.179Z,23.23
2022-11-30T09:22:05.095Z,23.55
2022-11-30T09:24:32.908Z,24.63
2022-11-30T09:27:00.693Z,23.40
2022-11-30T09:29:28.571Z,23.33
2022-11-30T09:31:58.147Z,23.90
2022-11-30T09:34:25.944Z,23.13
2022-11-30T09:36:53.889Z,23.42
2022-11-30T09:39:21.790Z,24.33
2022-11-30T09:42:18.621Z,23.85
2022-11-30T09:44:53.321Z,22.67
2022-11-30T09:47:48.889Z,23.25
2022-11-30T09:50:20.178Z,23.50
2022-11-30T09:52:51.966Z,24.77
2022-11-30T09:55:27.525Z,23.50
2022-11-30T09:57:58.000Z,24.30
2022-11-30T10:00:26.258Z,24.50
2022-11-30T10:02:58.082Z,23.10
2022-11-30T10:05:29.039Z,22.30
2022-11-30T10:08:09.303Z,21.70
2022-11-30T10:10:41.761Z,20.90
2022-11-30T10:13:27.776Z,20.65
2022-11-30T10:16:10.146Z,20.88
2022-11-30T10:18:50.988Z,21.27
2022-11-30T10:21:44.384Z,20.80
2022-11-30T10:24:25.115Z,22.33
2022-11-30T10:26:56.507Z,21.08
2022-11-30T10:29:31.434Z,20.88
2022-11-30T10:32:00.643Z,20.45
2022-11-30T10:34:35.834Z,21.52
2022-11-30T10:37:11.046Z,21.50
2022-11-30T10:39:44.747Z,20.77
2022-11-30T10:42:17.369Z,20.17
2022-11-30T10:44:52.585Z,19.58
2022-11-30T10:47:24.504Z,19.92
2022-11-30T10:49:54.264Z,19.70
2022-11-30T10:52:26.008Z,19.10
2022-11-30T10:55:00.568Z,19.33
2022-11-30T10:57:33.981Z,20.17
2022-11-30T11:00:06.518Z,18.63
2022-11-30T11:02:43.587Z,17.58
2022-11-30T11:05:20.092Z,15.90
2022-11-30T11:08:01.457Z,17.13
2022-11-30T11:10:36.326Z,17.85
2022-11-30T11:13:04.981Z,18.05
2022-11-30T11:15:34.729Z,16.80
2022-11-30T11:18:22.863Z,16.15
2022-11-30T11:21:05.858Z,15.35
2022-11-30T11:23:36.709Z,14.65
2022-11-30T11:26:05.853Z,14.10
2022-11-30T11:28:35.627Z,14.50
2022-11-30T11:31:17.908Z,14.02
2022-11-30T11:33:53.032Z,13.43
2022-11-30T11:36:28.710Z,13.47
2022-11-30T11:38:56.899Z,12.88
2022-11-30T11:41:27.747Z,11.32
2022-11-30T11:44:03.906Z,11.15
2022-11-30T11:46:33.185Z,10.57
2022-11-30T11:49:04.766Z,10.02
2022-11-30T11:51:35.694Z,10.05
2022-11-30T11:54:10.023Z,11.27
2022-11-30T11:56:38.422Z,11.73
2022-11-30T11:59:15.269Z,11.90
2022-11-30T12:02:00.094Z,13.73
2022-11-30T12:04:46.816Z,15.07
2022-11-30T12:07:35.810Z,14.80
2022-11-30T12:10:50.073Z,15.70
2022-11-30T12:13:13.668Z,17.08
2022-11-30T12:15:54.395Z,17.40
2022-11-30T12:18:25.766Z,18.20
2022-11-30T12:21:00.641Z,17.40
2022-11-30T12:23:51.296Z,17.98
2022-11-30T12:26:28.895Z,18.17
2022-11-30T12:29:21.905Z,17.33
2022-11-30T12:32:03.804Z,18.13
2022-11-30T12:35:01.382Z,18.58
2022-11-30T12:37:40.694Z,18.55
2022-11-30T12:40:24.106Z,18.47
2022-11-30T12:43:01.057Z,16.90
2022-11-30T12:45:36.058Z,16.73
2022-11-30T12:48:15.382Z,16.98
2022-11-30T12:50:53.593Z,16.02
2022-11-30T12:53:28.940Z,16.05
2022-11-30T12:56:10.181Z,17.15
2022-11-30T12:58:46.035Z,16.57
2022-11-30T13:01:27.330Z,15.48
2022-11-30T13:04:01.779Z,14.55
2022-11-30T13:06:33.324Z,16.27
2022-11-30T13:09:05.185Z,17.30
2022-11-30T13:11:38.384Z,18.38
2022-11-30T13:14:13.988Z,18.67
2022-11-30T13:16:43.989Z,20.23
2022-11-30T13:19:32.091Z,18.90
2022-11-30T13:22:07.678Z,21.10
2022-11-30T13:24:39.105Z,20.67
2022-11-30T13:27:14.945Z,20.50
2022-11-30T13:30:01.362Z,20.33
2022-11-30T13:32:57.319Z,19.23
2022-11-30T13:35:42.498Z,17.02
2022-11-30T13:38:37.575Z,16.27
2022-11-30T13:41:08.302Z,15.82
2022-11-30T13:43:41.174Z,15.95
2022-11-30T13:46:16.417Z,14.80
2022-11-30T13:48:45.883Z,14.30
2022-11-30T13:51:14.870Z,15.20
2022-11-30T13:53:42.873Z,16.13
2022-11-30T13:56:32.962Z,13.88
2022-11-30T13:59:36.115Z,14.02
2022-11-30T14:05:39.366Z,15.77
2022-11-30T14:08:32.121Z,16.35
2022-11-30T14:11:38.409Z,17.38
2022-11-30T14:14:47.385Z,18.85
2022-11-30T14:17:19.718Z,18.52
2022-11-30T14:19:50.459Z,19.42
2022-11-30T14:22:19.336Z,19.10
2022-11-30T14:24:49.595Z,19.98
2022-11-30T14:27:23.880Z,18.92
2022-11-30T14:29:57.137Z,19.02
2022-11-30T14:32:36.148Z,19.95
2022-11-30T14:35:09.165Z,20.00
2022-11-30T14:37:42.675Z,19.60
2022-11-30T14:40:19.092Z,20.17
2022-11-30T14:42:50.328Z,22.20
2022-11-30T14:45:25.624Z,21.95
2022-11-30T14:48:04.600Z,22.80
2022-11-30T14:50:33.254Z,25.60
2022-11-30T14:53:19.286Z,24.52
2022-11-30T14:55:51.658Z,25.30
2022-11-30T14:58:26.277Z,25.90
2022-11-30T15:00:57.188Z,25.75
2022-11-30T15:03:28.305Z,25.90
2022-11-30T15:05:58.263Z,26.13
2022-11-30T15:08:36.567Z,25.83
2022-11-30T15:11:06.622Z,26.27
2022-11-30T15:13:35.287Z,25.52
2022-11-30T15:16:10.812Z,26.48
2022-11-30T15:18:40.417Z,26.77
2022-11-30T15:21:15.365Z,27.13
2022-11-30T15:23:46.731Z,27.15
2022-11-30T15:26:23.803Z,26.17
2022-11-30T15:28:57.413Z,26.60
2022-11-30T15:31:31.230Z,26.27
2022-11-30T15:33:59.077Z,26.08
2022-11-30T15:36:33.284Z,25.40
2022-11-30T15:39:03.685Z,26.90
2022-11-30T15:41:33.164Z,26.75
2022-11-30T15:44:01.980Z,27.45
2022-11-30T15:46:34.648Z,25.80
2022-11-30T15:49:07.919Z,25.90
2022-11-30T15:51:40.103Z,25.25
2022-11-30T15:54:08.366Z,25.48
2022-11-30T15:56:36.441Z,25.52
2022-11-30T15:59:06.921Z,26.07
2022-11-30T16:02:01.954Z,26.93
2022-11-30T16:04:50.390Z,26.40
2022-11-30T16:07:18.829Z,26.13
2022-11-30T16:09:46.998Z,26.10
2022-11-30T16:12:30.465Z,26.75
2022-11-30T16:14:58.390Z,27.02
2022-11-30T16:17:29.883Z,26.77
2022-11-30T16:19:57.819Z,26.30
2022-11-30T16:22:25.580Z,27.83
2022-11-30T16:24:53.325Z,26.70
2022-11-30T16:27:22.555Z,26.80
2022-11-30T16:29:52.692Z,26.33
2022-11-30T16:32:20.747Z,28.10
2022-11-30T16:34:49.944Z,27.15
2022-11-30T16:37:17.755Z,25.98
2022-11-30T16:39:45.708Z,26.50
2022-11-30T16:42:13.778Z,25.65
2022-11-30T16:44:41.531Z,25.30
2022-11-30T16:47:09.317Z,25.02
2022-11-30T16:49:37.469Z,25.67
2022-11-30T16:52:06.698Z,25.98
2022-11-30T16:54:34.471Z,26.40
2022-11-30T16:57:02.331Z,26.58
2022-11-30T16:59:30.081Z,27.33
2022-11-30T17:01:58.237Z,27.35
2022-11-30T17:04:29.638Z,26.42
2022-11-30T17:07:02.471Z,27.90
2022-11-30T17:09:34.387Z,26.95
2022-11-30T17:12:03.165Z,26.77
2022-11-30T17:14:31.014Z,27.63
2022-11-30T17:17:00.094Z,26.83
2022-11-30T17:19:27.989Z,25.35
2022-11-30T17:21:55.847Z,26.73
2022-11-30T17:24:23.641Z,26.63
2022-11-30T17:26:52.763Z,25.40
2022-11-30T17:29:20.635Z,26.25
2022-11-30T17:31:48.411Z,25.83
2022-11-30T17:34:16.248Z,25.83
2022-11-30T17:36:44.215Z,27.05
2022-11-30T17:39:12.079Z,26.35
2022-11-30T17:41:39.843Z,24.90
2022-11-30T17:44:10.420Z,25.50
2022-11-30T17:46:39.899Z,25.55
2022-11-30T17:49:09.786Z,24.90
2022-11-30T17:51:37.836Z,25.20
2022-11-30T17:54:07.530Z,24.98
2022-11-30T17:56:35.776Z,25.33
2022-11-30T17:59:03.833Z,25.48
2022-11-30T18:01:33.069Z,25.70
2022-11-30T18:04:00.986Z,25.73
2022-11-30T18:06:29.377Z,25.80
2022-11-30T18:08:58.456Z,26.10
2022-11-30T18:11:28.876Z,27.17
2022-11-30T18:14:01.322Z,26.35
2022-11-30T18:16:32.384Z,28.42
2022-11-30T18:19:00.793Z,26.48
2022-11-30T18:21:30.745Z,26.15
2022-11-30T18:23:58.924Z,25.97
2022-11-30T18:26:27.858Z,25.23
2022-11-30T18:28:57.659Z,26.52
2022-11-30T18:31:25.566Z,26.98
2022-11-30T18:33:57.001Z,26.48
2022-11-30T18:36:25.249Z,25.17
2022-11-30T18:38:53.111Z,25.80
2022-11-30T18:41:21.131Z,26.92
2022-11-30T18:43:49.257Z,26.00
2022-11-30T18:46:17.168Z,26.50
2022-11-30T18:48:45.086Z,27.52
2022-11-30T18:51:16.444Z,26.63
2022-11-30T18:53:44.627Z,28.02
2022-11-30T18:56:14.433Z,28.42
2022-11-30T18:58:43.026Z,27.75
2022-11-30T19:01:13.605Z,27.70
2022-11-30T19:03:42.073Z,28.77
2022-11-30T19:06:11.474Z,29.17
2022-11-30T19:08:41.976Z,29.42
2022-11-30T19:11:10.797Z,28.73
2022-11-30T19:13:38.615Z,29.95
2022-11-30T19:16:08.309Z,31.13
2022-11-30T19:18:36.727Z,31.23
2022-11-30T19:21:09.351Z,30.50
2022-11-30T19:23:37.718Z,30.83
2022-11-30T19:26:08.099Z,30.77
2022-11-30T19:28:37.679Z,30.73
2022-11-30T19:31:08.709Z,31.30
2022-11-30T19:33:37.269Z,30.30
2022-11-30T19:36:06.970Z,31.60
2022-11-30T19:38:35.000Z,30.77
2022-11-30T19:41:07.401Z,31.23
2022-11-30T19:43:35.501Z,31.45
2022-11-30T19:46:07.373Z,31.77
2022-11-30T19:48:35.345Z,31.50
2022-11-30T19:51:05.872Z,30.98
2022-11-30T19:53:33.851Z,31.00
2022-11-30T19:56:06.437Z,31.37
2022-11-30T19:58:34.730Z,31.05
2022-11-30T20:01:02.869Z,31.77
2022-11-30T20:03:34.371Z,31.13
2022-11-30T20:06:02.258Z,32.25
2022-11-30T20:08:30.173Z,32.42
2022-11-30T20:10:58.023Z,31.83
2022-11-30T20:13:27.213Z,31.85
2022-11-30T20:15:55.137Z,32.85
2022-11-30T20:18:23.011Z,32.83
2022-11-30T20:20:50.788Z,32.92
2022-11-30T20:23:18.613Z,34.38
2022-11-30T20:25:46.454Z,34.05
2022-11-30T20:28:14.294Z,31.52
2022-11-30T20:30:43.774Z,33.72
2022-11-30T20:33:11.638Z,34.22
2022-11-30T20:35:39.437Z,34.05
2022-11-30T20:38:07.357Z,33.95
2022-11-30T20:40:37.542Z,34.28
2022-11-30T20:43:05.421Z,33.70
2022-11-30T20:45:33.304Z,33.58
2022-11-30T20:48:02.499Z,33.80
2022-11-30T20:50:30.469Z,33.38
2022-11-30T20:52:58.321Z,33.53
2022-11-30T20:55:26.220Z,32.83
2022-11-30T20:57:54.032Z,33.97
2022-11-30T21:00:21.962Z,32.17
2022-11-30T21:02:50.619Z,33.42
2022-11-30T21:05:19.854Z,33.15
2022-11-30T21:07:48.370Z,32.55
2022-11-30T21:10:16.352Z,31.10
2022-11-30T21:12:44.190Z,31.83
2022-11-30T21:15:12.210Z,33.03
2022-11-30T21:17:40.021Z,32.65
2022-11-30T21:20:09.809Z,33.80
2022-11-30T21:22:38.955Z,32.80
2022-11-30T21:25:07.763Z,33.20
2022-11-30T21:27:35.651Z,34.28
2022-11-30T21:30:03.679Z,34.50
2022-11-30T21:32:31.496Z,35.90
2022-11-30T21:34:59.308Z,35.83
2022-11-30T21:37:27.126Z,35.85
2022-11-30T21:39:56.258Z,34.72
2022-11-30T21:42:24.044Z,36.35
2022-11-30T21:44:51.789Z,36.85
2022-11-30T21:47:19.582Z,35.88
2022-11-30T21:49:47.376Z,36.25
2022-11-30T21:52:15.202Z,35.90
2022-11-30T21:54:43.423Z,36.28
2022-11-30T21:57:12.569Z,36.10
2022-11-30T21:59:40.377Z,35.67
2022-11-30T22:02:09.853Z,35.08
2022-11-30T22:04:38.108Z,33.88
2022-11-30T22:07:06.185Z,34.43
2022-11-30T22:09:34.459Z,34.92
2022-11-30T22:12:02.266Z,33.25
2022-11-30T22:14:31.432Z,34.70
2022-11-30T22:16:59.257Z,34.50
2022-11-30T22:19:27.010Z,36.40
2022-11-30T22:21:54.767Z,34.60
2022-11-30T22:24:22.671Z,34.42
2022-11-30T22:26:50.398Z,34.28
2022-11-30T22:29:20.253Z,31.92
2022-11-30T22:31:51.800Z,31.50
2022-11-30T22:34:20.132Z,31.97
2022-11-30T22:36:48.461Z,32.65
2022-11-30T22:39:18.034Z,32.58
2022-11-30T22:41:54.248Z,33.25
2022-11-30T22:44:23.001Z,33.58
2022-11-30T22:46:52.208Z,33.70
2022-11-30T22:49:21.612Z,34.15
2022-11-30T22:51:50.445Z,34.42
2022-11-30T22:54:19.213Z,33.78
2022-11-30T22:56:47.229Z,35.75
2022-11-30T22:59:16.199Z,34.75
2022-11-30T23:01:45.783Z,36.78
2022-11-30T23:04:16.946Z,36.58
2022-11-30T23:06:46.286Z,36.97
2022-11-30T23:09:16.745Z,37.38
2022-11-30T23:11:44.638Z,36.72
2022-11-30T23:14:12.723Z,38.93
2022-11-30T23:16:41.699Z,38.38
2022-11-30T23:19:11.190Z,39.72
2022-11-30T23:21:42.300Z,40.55
2022-11-30T23:24:13.709Z,40.33
2022-11-30T23:26:42.180Z,40.43
2022-11-30T23:29:12.940Z,38.93
2022-11-30T23:31:42.495Z,39.70
2022-11-30T23:34:13.036Z,37.92
2022-11-30T23:36:42.189Z,39.63
2022-11-30T23:39:12.034Z,40.35
2022-11-30T23:41:40.372Z,39.42
2022-11-30T23:44:08.588Z,38.33
2022-11-30T23:46:37.139Z,39.65
2022-11-30T23:49:05.384Z,41.13
2022-11-30T23:51:33.237Z,39.47
2022-11-30T23:54:02.461Z,40.73
2022-11-30T23:56:30.221Z,40.80
2022-11-30T23:58:58.073Z,40.92
